Time;durP1;ratioP1;P1;durP2;ratioP2;P2;SDS_P1;SDS_P2;PMS_P1;PMS_P2;Temp;Humidity;BMP_temperature;BMP_pressure;BME280_temperature;BME280_humidity;BME280_pressure;Samples;Min_cycle;Max_cycle;Signal;HPM_P1;HPM_P2
2023/10/22 00:00:01;;;;;;;2.17;1.30;;;;;;;12.05;81.02;97811.00;5175471;27;42096;-83
2023/10/22 00:02:28;;;;;;;1.90;1.70;;;;;;;12.14;81.24;97830.59;5175444;27;39976;-84
2023/10/22 00:04:56;;;;;;;2.10;1.57;;;;;;;12.14;81.26;97826.13;5139535;27;40285;-83
2023/10/22 00:07:24;;;;;;;2.03;1.40;;;;;;;12.08;81.50;97821.34;5139497;27;41578;-84
2023/10/22 00:09:54;;;;;;;2.23;1.50;;;;;;;12.12;81.65;97832.53;5156845;27;41181;-84
2023/10/22 00:12:22;;;;;;;2.07;1.73;;;;;;;12.11;81.51;97836.19;5139541;27;39035;-84
2023/10/22 00:14:49;;;;;;;1.73;1.63;;;;;;;12.09;81.76;97843.44;5140319;27;40227;-84
2023/10/22 00:17:17;;;;;;;1.40;1.30;;;;;;;11.97;81.86;97824.09;5157606;27;42919;-83
2023/10/22 00:19:48;;;;;;;2.13;1.93;;;;;;;11.87;81.68;97812.53;5157600;27;42973;-84
2023/10/22 00:22:16;;;;;;;2.17;1.70;;;;;;;11.92;82.37;97825.44;5157332;27;42211;-83
2023/10/22 00:24:45;;;;;;;2.40;1.90;;;;;;;11.93;82.79;97832.41;5157258;27;40674;-84
2023/10/22 00:27:13;;;;;;;2.30;2.03;;;;;;;11.90;82.62;97835.31;5157265;27;42913;-83
2023/10/22 00:29:40;;;;;;;1.73;1.57;;;;;;;11.86;82.89;97842.72;5157734;27;42210;-83
2023/10/22 00:32:08;;;;;;;1.50;1.40;;;;;;;11.84;82.59;97839.34;5157264;27;40214;-83
2023/10/22 00:34:36;;;;;;;2.37;1.50;;;;;;;11.69;82.49;97828.16;5157540;27;41784;-83
2023/10/22 00:37:04;;;;;;;2.00;1.43;;;;;;;11.76;83.21;97847.94;5140280;27;42018;-85
2023/10/22 00:39:31;;;;;;;2.53;1.97;;;;;;;11.74;82.99;97855.16;5140328;27;41332;-83
2023/10/22 00:42:00;;;;;;;1.63;1.47;;;;;;;11.71;82.54;97844.81;5138515;27;41777;-82
2023/10/22 00:44:28;;;;;;;1.47;1.30;;;;;;;11.68;82.32;97853.00;5156231;27;41733;-84
2023/10/22 00:46:56;;;;;;;2.73;1.50;;;;;;;11.66;82.60;97860.25;5174558;27;42699;-83
2023/10/22 00:49:23;;;;;;;1.87;1.37;;;;;;;11.62;82.44;97861.44;5139109;27;43332;-84
2023/10/22 00:51:51;;;;;;;1.97;1.53;;;;;;;11.59;82.38;97867.03;5156435;27;39849;-84
2023/10/22 00:54:20;;;;;;;2.90;1.87;;;;;;;11.47;82.34;97846.84;5156283;27;42409;-83
2023/10/22 00:56:50;;;;;;;2.20;1.53;;;;;;;11.41;82.17;97849.97;5138259;27;43292;-83
2023/10/22 00:59:19;;;;;;;1.10;1.10;;;;;;;11.46;82.49;97867.19;5156187;27;42331;-84
2023/10/22 08:39:51;;;;;;;2.57;1.10;;;;;;;27.47;35.81;98374.78;5109731;28;20574;-85
2023/10/22 08:42:24;;;;;;;1.97;1.07;;;;;;;27.85;36.28;98358.50;5106377;28;40123;-85
2023/10/22 08:44:52;;;;;;;2.27;1.10;;;;;;;27.96;35.26;98367.00;5107539;28;40876;-85
2023/10/22 08:47:19;;;;;;;2.57;0.90;;;;;;;27.52;34.77;98350.50;5107191;28;43308;-84
2023/10/22 08:49:49;;;;;;;5.03;1.40;;;;;;;27.16;34.78;98364.66;5108545;28;42107;-86
2023/10/22 08:52:17;;;;;;;2.07;0.77;;;;;;;26.72;35.50;98356.31;5107368;28;40159;-85
2023/10/22 08:54:46;;;;;;;4.37;1.60;;;;;;;26.42;35.76;98350.50;5107760;28;41883;-92
2023/10/22 08:57:15;;;;;;;3.73;1.17;;;;;;;26.00;35.87;98363.38;5125127;27;41743;-84
2023/10/22 08:59:45;;;;;;;3.30;1.37;;;;;;;25.15;36.86;98346.78;5107370;28;42359;-84
2023/10/22 09:02:15;;;;;;;3.10;1.07;;;;;;;24.43;38.12;98345.25;5107703;28;41181;-86
2023/10/22 09:04:43;;;;;;;2.30;0.93;;;;;;;24.05;39.32;98336.59;5090100;28;41418;-85
2023/10/22 09:07:10;;;;;;;2.67;1.10;;;;;;;24.43;39.51;98336.31;5141814;27;42857;-84
2023/10/22 09:09:39;;;;;;;3.70;1.30;;;;;;;25.87;36.88;98349.78;5090286;28;42866;-85
2023/10/22 09:12:10;;;;;;;3.43;1.33;;;;;;;26.72;36.21;98361.75;5090594;28;39617;-85
2023/10/22 09:14:39;;;;;;;1.73;1.00;;;;;;;26.96;35.14;98373.88;5108056;28;42208;-86
2023/10/22 09:17:17;;;;;;;5.20;1.00;;;;;;;26.69;35.84;98348.63;5109200;28;42927;-84
2023/10/22 09:19:47;;;;;;;4.10;1.20;;;;;;;26.33;35.59;98358.03;5108305;28;42899;-85
2023/10/22 09:22:22;;;;;;;2.67;1.13;;;;;;;25.63;35.62;98355.78;5091745;28;40979;-87
2023/10/22 09:24:53;;;;;;;2.10;0.97;;;;;;;24.71;36.48;98353.41;5089074;28;41143;-87
2023/10/22 09:27:25;;;;;;;2.73;1.00;;;;;;;23.99;37.89;98340.88;5108518;28;42683;-87
2023/10/22 09:29:54;;;;;;;3.43;1.23;;;;;;;23.47;38.85;98324.09;5105674;28;43587;-88
2023/10/22 09:32:22;;;;;;;2.40;1.20;;;;;;;23.29;39.68;98349.66;5108301;28;40100;-84
2023/10/22 09:34:50;;;;;;;4.43;1.33;;;;;;;23.14;39.18;98346.13;5109010;28;42696;-81
2023/10/22 09:37:17;;;;;;;5.40;1.53;;;;;;;23.37;38.70;98350.59;5108188;28;43813;-84
2023/10/22 09:39:46;;;;;;;2.70;1.30;;;;;;;23.74;38.23;98349.59;5106633;28;42149;-88
2023/10/22 09:42:14;;;;;;;4.40;1.60;;;;;;;23.84;37.59;98358.22;5105984;28;40147;-81
2023/10/22 09:44:44;;;;;;;5.63;1.33;;;;;;;23.67;38.46;98352.22;5105728;28;41670;-86
2023/10/22 09:47:20;;;;;;;3.80;1.27;;;;;;;23.41;38.84;98331.09;5089744;28;43822;-85
2023/10/22 09:49:52;;;;;;;3.30;1.27;;;;;;;23.86;38.07;98342.66;5117576;27;41226;-85
2023/10/22 09:52:22;;;;;;;2.80;1.30;;;;;;;23.91;38.32;98342.88;5092960;28;40374;-81
2023/10/22 09:54:54;;;;;;;4.10;1.27;;;;;;;23.53;37.79;98366.59;5127025;27;42246;-84
2023/10/22 09:57:27;;;;;;;1.83;1.10;;;;;;;23.11;38.76;98362.72;5089650;28;43335;-82
2023/10/22 09:59:56;;;;;;;4.03;1.30;;;;;;;22.63;39.98;98357.81;5089439;28;42394;-86
2023/10/22 10:02:26;;;;;;;3.30;1.10;;;;;;;22.27;40.37;98336.91;5092361;28;38561;-82
2023/10/22 10:04:55;;;;;;;4.07;1.20;;;;;;;22.27;40.62;98326.13;5092564;28;42821;-89
2023/10/22 10:07:23;;;;;;;2.87;1.30;;;;;;;22.33;41.20;98336.19;5092252;28;43344;-82
2023/10/22 10:09:51;;;;;;;2.93;1.30;;;;;;;22.55;40.35;98338.00;5075509;28;42277;-84
2023/10/22 10:12:19;;;;;;;2.67;0.90;;;;;;;23.76;39.48;98348.34;5092764;28;41029;-83
2023/10/22 10:14:48;;;;;;;1.73;1.00;;;;;;;24.57;37.88;98368.72;5128028;27;41798;-86
2023/10/22 10:17:19;;;;;;;4.20;1.10;;;;;;;24.43;37.59;98347.97;5093399;28;42974;-84
2023/10/22 10:19:48;;;;;;;4.80;1.47;;;;;;;24.03;37.95;98335.09;5093395;28;42119;-88
2023/10/22 10:22:49;;;;;;;4.97;1.60;;;;;;;26.21;35.26;98385.97;5076631;28;38971;-84
2023/10/22 10:25:30;;;;;;;3.80;1.23;;;;;;;29.16;31.06;98412.22;5093849;28;43222;-88
2023/10/22 10:28:02;;;;;;;3.50;1.20;;;;;;;29.12;31.37;98400.91;5127470;27;42360;-83
2023/10/22 10:30:29;;;;;;;3.17;1.13;;;;;;;28.26;31.25;98362.66;5124669;27;43173;-89
2023/10/22 10:32:57;;;;;;;4.00;1.30;;;;;;;27.57;32.52;98376.25;5094552;28;40807;-85
2023/10/22 10:35:28;;;;;;;2.97;1.20;;;;;;;26.80;34.01;98389.56;5093377;28;41901;-89
2023/10/22 10:38:22;;;;;;;2.70;0.90;;;;;;;26.05;34.57;98381.78;5109783;28;41732;-83
2023/10/22 10:40:51;;;;;;;4.63;1.30;;;;;;;25.37;35.36;98376.28;5077104;28;42359;-86
2023/10/22 10:43:19;;;;;;;3.00;1.10;;;;;;;24.82;35.77;98370.97;5080495;28;38788;-81
2023/10/22 10:46:24;;;;;;;3.33;1.00;;;;;;;24.45;37.12;98367.56;5083376;28;41261;-81
2023/10/22 10:48:52;;;;;;;3.33;1.10;;;;;;;24.98;36.44;98368.78;5091656;28;43702;-85
2023/10/22 10:51:23;;;;;;;3.37;1.20;;;;;;;26.05;35.72;98377.19;5091945;28;41254;-84
2023/10/22 10:54:21;;;;;;;3.93;1.20;;;;;;;27.16;34.43;98385.56;5090868;28;39940;-85
2023/10/22 10:56:53;;;;;;;3.17;1.17;;;;;;;27.73;32.43;98397.50;5087571;28;41531;-83
2023/10/22 10:59:31;;;;;;;2.90;1.20;;;;;;;27.33;32.46;98389.47;5074881;28;44225;-82
2023/10/22 11:02:03;;;;;;;3.10;1.30;;;;;;;26.60;32.68;98361.56;5091081;28;41051;-84
2023/10/22 11:04:31;;;;;;;3.07;1.10;;;;;;;26.43;33.23;98382.06;5074780;28;39340;-86
2023/10/22 11:07:02;;;;;;;3.13;1.33;;;;;;;26.42;33.66;98393.97;5075090;28;43262;-84
2023/10/22 11:09:32;;;;;;;3.57;1.10;;;;;;;26.82;33.82;98389.34;5092581;28;43653;-84
2023/10/22 11:12:03;;;;;;;2.47;1.73;;;;;;;26.81;32.78;98379.53;5075160;28;42607;-85
2023/10/22 11:14:31;;;;;;;3.43;1.60;;;;;;;28.69;32.18;98391.84;5092640;28;39150;-84
2023/10/22 11:17:00;;;;;;;4.10;1.17;;;;;;;28.28;31.31;98386.97;5076185;28;40855;-85
2023/10/22 11:19:29;;;;;;;3.27;1.40;;;;;;;28.78;30.42;98402.31;5075170;28;44149;-90
2023/10/22 11:21:58;;;;;;;2.97;1.33;;;;;;;31.24;28.64;98416.00;5075914;28;43731;-84
2023/10/22 11:24:29;;;;;;;2.90;1.30;;;;;;;32.65;26.70;98422.69;5127200;27;40992;-86
2023/10/22 11:26:58;;;;;;;1.50;1.00;;;;;;;33.35;24.94;98418.63;5124078;27;42660;-86
2023/10/22 11:29:25;;;;;;;4.70;1.35;;;;;;;34.26;24.85;98430.78;5093038;28;43804;-89
2023/10/22 11:31:54;;;;;;;4.13;1.52;;;;;;;34.27;24.64;98440.69;5075890;28;40895;-88
2023/10/22 11:34:22;;;;;;;3.47;1.27;;;;;;;35.02;24.47;98428.75;5092215;28;39864;-86
2023/10/22 11:36:56;;;;;;;3.20;1.23;;;;;;;33.26;24.83;98431.13;5075691;28;40887;-89
2023/10/22 11:39:24;;;;;;;2.17;1.30;;;;;;;32.44;24.87;98413.28;5075061;28;41930;-85
2023/10/22 11:41:58;;;;;;;3.03;1.08;;;;;;;32.73;25.03;98426.97;5091937;28;43450;-85
2023/10/22 11:44:31;;;;;;;2.10;1.17;;;;;;;33.84;24.39;98414.09;5090837;28;39025;-82
2023/10/22 11:47:01;;;;;;;5.55;1.67;;;;;;;33.82;23.64;98425.31;5074036;28;42469;-90
2023/10/22 11:49:28;;;;;;;4.65;1.80;;;;;;;34.95;23.25;98439.16;5073357;28;41564;-85
2023/10/22 11:51:56;;;;;;;2.75;1.40;;;;;;;36.20;21.64;98456.69;5090542;28;43157;-85
2023/10/22 11:54:44;;;;;;;2.55;1.13;;;;;;;37.97;20.21;98450.31;5091857;28;40659;-86
2023/10/22 11:57:13;;;;;;;3.75;1.00;;;;;;;39.28;19.32;98458.88;5090894;28;40356;-86
2023/10/22 11:59:41;;;;;;;4.35;1.20;;;;;;;40.26;18.63;98463.03;5073508;28;42306;-85
2023/10/22 12:02:09;;;;;;;1.80;1.25;;;;;;;40.74;18.19;98444.31;5090795;28;41483;-86
2023/10/22 12:04:36;;;;;;;1.85;1.20;;;;;;;39.74;18.76;98447.31;5073615;28;39083;-85
2023/10/22 12:07:04;;;;;;;4.43;1.65;;;;;;;38.25;19.14;98442.44;5090638;28;40796;-84
2023/10/22 12:09:32;;;;;;;3.30;1.23;;;;;;;38.34;20.09;98447.09;5090076;28;43966;-85
2023/10/22 12:11:59;;;;;;;2.30;1.00;;;;;;;38.87;19.50;98454.78;5073604;28;42537;-84
2023/10/22 12:14:28;;;;;;;3.05;1.30;;;;;;;37.35;20.38;98445.22;5073886;28;41116;-84
2023/10/22 12:16:56;;;;;;;2.83;1.27;;;;;;;36.64;20.36;98454.31;5074675;28;41010;-84
2023/10/22 12:19:23;;;;;;;2.40;1.02;;;;;;;37.27;20.55;98437.53;5124938;27;42816;-86
2023/10/22 12:21:51;;;;;;;3.28;1.45;;;;;;;36.48;20.70;98444.34;5074391;28;42646;-85
2023/10/22 12:24:18;;;;;;;3.63;1.13;;;;;;;35.36;21.40;98439.47;5074265;28;41441;-84
2023/10/22 12:26:46;;;;;;;4.78;1.50;;;;;;;35.34;21.90;98437.00;5091565;28;42931;-84
2023/10/22 12:29:14;;;;;;;3.13;1.40;;;;;;;35.59;22.16;98428.03;5091223;28;43542;-85
2023/10/22 12:31:43;;;;;;;2.58;1.20;;;;;;;35.12;22.75;98431.56;5074433;28;41001;-83
2023/10/22 12:34:11;;;;;;;3.10;1.08;;;;;;;35.09;22.46;98434.88;5125798;27;39795;-84
2023/10/22 12:36:38;;;;;;;4.53;1.60;;;;;;;34.22;23.42;98435.13;5092581;28;41801;-84
2023/10/22 12:39:07;;;;;;;3.33;1.40;;;;;;;33.22;24.13;98419.78;5090607;28;43043;-85
2023/10/22 12:41:35;;;;;;;4.10;1.60;;;;;;;32.24;24.90;98423.91;5089752;28;41149;-85
2023/10/22 12:44:03;;;;;;;4.17;1.40;;;;;;;31.33;26.00;98405.53;5072618;28;38915;-86
2023/10/22 12:46:31;;;;;;;3.97;1.20;;;;;;;30.26;26.56;98372.84;5091229;28;41692;-85
2023/10/22 12:49:00;;;;;;;3.87;1.17;;;;;;;29.55;27.96;98403.59;5089743;28;42671;-87
2023/10/22 12:51:27;;;;;;;4.77;1.43;;;;;;;28.63;28.48;98387.31;5089570;28;42638;-85
2023/10/22 12:53:55;;;;;;;3.97;1.30;;;;;;;27.94;30.04;98401.81;5091255;28;40018;-83
2023/10/22 12:56:23;;;;;;;3.23;1.23;;;;;;;27.00;30.81;98384.13;5091049;28;41738;-85
2023/10/22 12:58:54;;;;;;;2.63;0.93;;;;;;;26.41;31.68;98387.69;5072632;28;41670;-85
2023/10/22 13:01:22;;;;;;;2.83;1.10;;;;;;;25.69;32.59;98390.25;5087762;28;42778;-84
2023/10/22 13:03:50;;;;;;;2.57;1.17;;;;;;;25.14;33.23;98374.94;5089831;28;40097;-86
2023/10/22 13:06:19;;;;;;;3.63;1.10;;;;;;;24.54;33.89;98360.13;5089661;28;42646;-84
2023/10/22 13:08:46;;;;;;;3.20;1.13;;;;;;;24.32;34.43;98372.88;5089431;28;42584;-82
2023/10/22 13:11:17;;;;;;;5.33;1.37;;;;;;;23.99;35.25;98362.53;5089522;28;43343;-85
2023/10/22 13:13:44;;;;;;;4.53;1.00;;;;;;;23.83;35.63;98376.31;5073526;28;40360;-84
2023/10/22 13:16:12;;;;;;;2.13;0.90;;;;;;;23.67;35.55;98379.25;5091599;28;41924;-85
2023/10/22 13:18:40;;;;;;;1.97;0.80;;;;;;;23.58;36.60;98380.41;5090314;28;41634;-85
2023/10/22 13:21:07;;;;;;;3.63;1.20;;;;;;;23.49;36.06;98371.50;5091655;28;42958;-84
2023/10/22 13:23:36;;;;;;;5.70;1.07;;;;;;;23.28;35.52;98382.25;5091062;28;40284;-85
2023/10/22 13:26:04;;;;;;;2.13;0.93;;;;;;;23.26;35.72;98382.44;5095347;28;41489;-81
2023/10/22 13:28:32;;;;;;;4.57;1.10;;;;;;;23.36;35.10;98389.44;5111299;28;41323;-81
2023/10/22 13:30:59;;;;;;;5.67;1.33;;;;;;;23.70;34.78;98335.63;5096707;28;42798;-83
2023/10/22 13:33:27;;;;;;;4.17;1.30;;;;;;;25.84;31.97;98412.59;5131268;27;39917;-80
2023/10/22 13:35:55;;;;;;;2.87;0.93;;;;;;;27.29;30.42;98410.00;5080074;28;41813;-82
2023/10/22 13:38:22;;;;;;;3.37;1.17;;;;;;;28.56;29.03;98414.63;5080124;28;43066;-87
2023/10/22 13:40:52;;;;;;;4.27;1.43;;;;;;;29.71;27.78;98425.88;5077492;28;42783;-86
2023/10/22 13:43:19;;;;;;;2.90;0.90;;;;;;;29.74;27.13;98429.00;5099429;28;39795;-85
2023/10/22 13:45:47;;;;;;;3.47;0.97;;;;;;;28.86;27.80;98437.44;5081848;28;40851;-85
2023/10/22 13:48:14;;;;;;;5.20;1.17;;;;;;;27.81;28.79;98438.09;5109903;28;42110;-85
2023/10/22 13:50:42;;;;;;;2.97;1.30;;;;;;;27.01;30.17;98439.31;5093203;28;42022;-85
2023/10/22 13:53:10;;;;;;;2.77;1.30;;;;;;;26.03;30.76;98438.13;5094368;28;41014;-83
2023/10/22 13:55:37;;;;;;;3.20;1.10;;;;;;;25.33;31.99;98442.81;5092876;28;41793;-83
2023/10/22 13:58:06;;;;;;;3.40;0.90;;;;;;;24.73;32.67;98424.41;5092624;28;43158;-85
2023/10/22 14:00:37;;;;;;;3.43;1.07;;;;;;;24.18;33.73;98415.16;5075877;28;41182;-85
2023/10/22 14:03:05;;;;;;;2.43;1.10;;;;;;;23.89;34.32;98421.50;5075946;28;39666;-85
2023/10/22 14:05:32;;;;;;;3.70;1.00;;;;;;;23.52;34.76;98409.00;5075901;28;40512;-85
2023/10/22 14:08:00;;;;;;;2.17;1.07;;;;;;;23.33;35.89;98403.31;5075392;28;42820;-82
2023/10/22 14:10:28;;;;;;;3.23;1.23;;;;;;;23.08;36.82;98395.50;5092434;28;42863;-83
2023/10/22 14:12:56;;;;;;;1.87;0.63;;;;;;;22.80;36.87;98386.38;5076079;28;39287;-85
2023/10/22 14:15:25;;;;;;;1.73;1.00;;;;;;;22.70;37.13;98399.28;5077386;28;40980;-83
2023/10/22 14:17:52;;;;;;;2.27;0.93;;;;;;;22.45;37.37;98404.91;5093986;28;42740;-82
2023/10/22 14:20:20;;;;;;;2.60;1.10;;;;;;;21.97;37.27;98372.88;5094067;28;42890;-83
2023/10/22 14:22:47;;;;;;;3.00;1.43;;;;;;;21.99;37.61;98404.09;5093320;28;39969;-82
2023/10/22 14:25:15;;;;;;;1.17;0.80;;;;;;;21.78;38.14;98393.06;5110173;28;40862;-80
2023/10/22 14:27:44;;;;;;;3.43;1.07;;;;;;;21.79;38.31;98413.59;5075644;28;43750;-84
2023/10/22 14:30:12;;;;;;;2.03;0.90;;;;;;;21.58;38.28;98403.44;5095902;28;42515;-84
2023/10/22 14:32:42;;;;;;;4.10;1.33;;;;;;;21.51;39.29;98415.97;5076001;28;40176;-83
2023/10/22 14:35:10;;;;;;;2.43;1.00;;;;;;;21.45;38.82;98408.56;5076137;28;40840;-84
2023/10/22 14:37:38;;;;;;;5.17;1.97;;;;;;;21.40;39.30;98414.47;5092262;28;44903;-83
2023/10/22 14:40:08;;;;;;;4.60;1.57;;;;;;;21.20;39.46;98401.59;5093682;28;42282;-82
2023/10/22 14:42:35;;;;;;;4.97;1.77;;;;;;;21.19;39.61;98408.84;5090641;28;39362;-82
2023/10/22 14:45:03;;;;;;;2.90;1.17;;;;;;;20.92;39.59;98382.31;5092000;28;42040;-82
2023/10/22 14:47:32;;;;;;;3.23;1.17;;;;;;;20.64;40.42;98363.06;5091429;28;43166;-81
2023/10/22 14:50:02;;;;;;;3.10;1.20;;;;;;;20.84;40.30;98403.88;5092904;28;42356;-82
2023/10/22 14:52:30;;;;;;;4.27;1.00;;;;;;;20.74;40.75;98390.59;5126105;27;40150;-82
2023/10/22 14:54:58;;;;;;;3.43;1.17;;;;;;;20.53;40.58;98385.75;5091659;28;41967;-84
2023/10/22 14:57:25;;;;;;;4.80;1.43;;;;;;;20.55;40.55;98412.47;5091469;28;41627;-83
2023/10/22 14:59:53;;;;;;;2.43;0.80;;;;;;;20.34;41.33;98399.53;5092575;28;43131;-84
2023/10/22 15:02:20;;;;;;;2.37;1.10;;;;;;;20.17;41.65;98393.28;5091116;28;40432;-81
2023/10/22 15:04:48;;;;;;;3.60;1.30;;;;;;;20.10;42.10;98408.44;5091867;28;40757;-82
2023/10/22 15:07:16;;;;;;;3.60;1.30;;;;;;;19.95;42.53;98410.09;5125475;27;42941;-83
2023/10/22 15:09:44;;;;;;;5.63;1.13;;;;;;;19.81;43.23;98405.34;5108300;28;42675;-81
2023/10/22 15:12:11;;;;;;;3.87;1.23;;;;;;;19.72;43.13;98408.03;5092102;28;39990;-84
2023/10/22 15:14:39;;;;;;;4.43;1.07;;;;;;;19.58;43.12;98392.56;5108982;28;41622;-81
2023/10/22 15:17:07;;;;;;;3.63;1.30;;;;;;;19.46;43.69;98383.09;5093616;28;43562;-81
2023/10/22 15:19:34;;;;;;;4.73;1.73;;;;;;;19.46;44.10;98409.94;5093158;28;41960;-82
2023/10/22 15:22:01;;;;;;;3.17;1.13;;;;;;;19.33;44.16;98414.91;5126760;27;41016;-83
2023/10/22 15:24:31;;;;;;;4.37;1.30;;;;;;;19.19;44.38;98402.09;5074823;28;43259;-84
2023/10/22 15:26:58;;;;;;;3.50;1.03;;;;;;;19.01;44.56;98400.38;5075003;28;41937;-85
2023/10/22 15:29:28;;;;;;;2.03;1.13;;;;;;;19.04;44.63;98407.22;5091773;28;42413;-81
2023/10/22 15:31:57;;;;;;;3.60;1.10;;;;;;;19.00;45.02;98404.03;5090705;28;41132;-80
2023/10/22 15:34:28;;;;;;;3.70;1.17;;;;;;;18.94;44.93;98410.03;5108080;28;40702;-81
2023/10/22 15:36:55;;;;;;;4.07;1.43;;;;;;;18.90;44.79;98414.06;5074172;28;41590;-82
2023/10/22 15:39:23;;;;;;;3.83;1.17;;;;;;;18.89;45.21;98411.53;5107576;28;41422;-83
2023/10/22 15:41:54;;;;;;;4.27;1.23;;;;;;;18.86;44.96;98414.53;5074145;28;40404;-81
2023/10/22 15:44:21;;;;;;;3.80;1.50;;;;;;;18.79;45.21;98411.63;5073912;28;40503;-83
2023/10/22 15:46:50;;;;;;;3.40;1.20;;;;;;;18.70;45.44;98407.22;5073723;28;45429;-84
2023/10/22 15:49:18;;;;;;;2.90;1.33;;;;;;;18.69;45.85;98416.25;5090028;28;42938;-81
2023/10/22 15:51:45;;;;;;;1.73;1.07;;;;;;;18.52;45.54;98398.34;5090658;28;40133;-85
2023/10/22 15:54:13;;;;;;;2.40;1.17;;;;;;;18.37;45.95;98379.31;5073307;28;41540;-85
2023/10/22 15:56:40;;;;;;;3.30;1.30;;;;;;;18.41;45.68;98395.94;5090440;28;42454;-83
2023/10/22 15:59:28;;;;;;;3.47;1.00;;;;;;;18.26;46.37;98377.72;5107011;28;41919;-83
2023/10/22 16:01:56;;;;;;;4.77;1.30;;;;;;;18.37;46.96;98407.97;5073739;28;39154;-82
2023/10/22 16:04:23;;;;;;;1.50;0.90;;;;;;;18.25;46.91;98412.72;5090412;28;42637;-85
2023/10/22 16:06:51;;;;;;;1.87;0.90;;;;;;;18.15;46.64;98414.66;5073410;28;42469;-84
2023/10/22 16:09:18;;;;;;;2.70;1.13;;;;;;;17.98;46.97;98399.41;5091358;28;42230;-83
2023/10/22 16:11:48;;;;;;;2.10;1.10;;;;;;;18.02;47.05;98425.75;5107594;28;41478;-82
2023/10/22 16:14:16;;;;;;;2.57;1.03;;;;;;;17.96;47.43;98423.69;5092599;28;41841;-85
2023/10/22 16:16:44;;;;;;;4.73;1.27;;;;;;;17.91;47.32;98420.63;5108529;28;42223;-85
2023/10/22 16:19:12;;;;;;;1.63;0.87;;;;;;;17.87;47.54;98427.28;5092137;28;42193;-84
2023/10/22 16:21:41;;;;;;;3.30;1.50;;;;;;;17.78;48.40;98417.47;5091603;28;39911;-81
2023/10/22 16:24:09;;;;;;;3.90;1.10;;;;;;;17.65;48.09;98415.16;5092040;28;42690;-81
2023/10/22 16:26:36;;;;;;;3.17;1.00;;;;;;;17.69;48.27;98434.44;5091724;28;42771;-84
2023/10/22 16:29:04;;;;;;;5.33;1.40;;;;;;;17.63;48.81;98433.22;5091474;28;43249;-83
2023/10/22 16:31:33;;;;;;;2.90;1.30;;;;;;;17.38;48.79;98407.97;5091441;28;40022;-83
2023/10/22 16:34:00;;;;;;;3.33;1.30;;;;;;;17.56;49.00;98438.28;5074591;28;40880;-83
2023/10/22 16:36:28;;;;;;;3.10;1.00;;;;;;;17.42;49.16;98430.78;5090127;28;42641;-81
2023/10/22 16:38:55;;;;;;;2.73;1.20;;;;;;;17.45;49.44;98440.31;5094142;28;42046;-83
2023/10/22 16:41:22;;;;;;;3.30;1.23;;;;;;;17.34;49.42;98430.66;5094429;28;41260;-81
2023/10/22 16:43:50;;;;;;;2.13;1.10;;;;;;;17.41;48.97;98450.50;5090436;28;41517;-84
2023/10/22 16:46:17;;;;;;;3.00;1.27;;;;;;;17.38;49.30;98450.81;5073352;28;42037;-82
2023/10/22 16:48:47;;;;;;;2.53;1.20;;;;;;;17.35;49.66;98445.75;5090452;28;42292;-84
2023/10/22 16:51:14;;;;;;;1.93;1.00;;;;;;;16.96;49.49;98391.56;5091303;28;39767;-84
2023/10/22 16:53:42;;;;;;;2.00;1.03;;;;;;;17.07;49.42;98415.44;5090526;28;42667;-81
2023/10/22 16:56:09;;;;;;;2.93;1.17;;;;;;;17.24;49.86;98453.97;5089908;28;43560;-80
2023/10/22 16:58:37;;;;;;;1.87;1.10;;;;;;;17.20;49.64;98453.41;5072939;28;42582;-83
2023/10/22 17:01:05;;;;;;;3.50;1.40;;;;;;;17.17;50.08;98452.88;5092939;28;39772;-83
2023/10/22 17:03:33;;;;;;;3.40;1.37;;;;;;;17.13;50.27;98455.00;5093671;28;44209;-83
2023/10/22 17:06:03;;;;;;;2.77;1.60;;;;;;;17.09;50.05;98455.44;5127436;27;43108;-82
2023/10/22 17:08:31;;;;;;;4.83;1.63;;;;;;;17.04;50.76;98463.06;5093720;28;40784;-81
2023/10/22 17:10:58;;;;;;;2.87;1.27;;;;;;;17.00;50.56;98456.31;5093338;28;40219;-82
2023/10/22 17:13:26;;;;;;;3.50;1.50;;;;;;;16.84;51.22;98447.06;5077960;28;40711;-83
2023/10/22 17:15:53;;;;;;;4.23;1.40;;;;;;;16.91;51.29;98454.50;5094329;28;42655;-81
2023/10/22 17:18:21;;;;;;;3.33;1.20;;;;;;;16.85;51.51;98458.59;5097959;28;42782;-80
2023/10/22 17:20:49;;;;;;;2.53;1.20;;;;;;;16.79;51.25;98465.38;5080639;28;39874;-81
2023/10/22 17:23:19;;;;;;;3.33;1.30;;;;;;;16.80;51.19;98475.09;5095611;28;43055;-86
2023/10/22 17:25:48;;;;;;;3.47;1.30;;;;;;;16.78;51.38;98474.41;5075076;28;44569;-81
2023/10/22 17:28:15;;;;;;;5.03;1.27;;;;;;;16.75;51.82;98473.84;5093059;28;41405;-84
2023/10/22 17:30:43;;;;;;;3.87;1.50;;;;;;;16.71;51.60;98478.63;5093217;28;40455;-83
2023/10/22 17:33:11;;;;;;;3.13;1.57;;;;;;;16.55;51.61;98462.31;5093485;28;41586;-84
2023/10/22 17:35:39;;;;;;;3.93;1.50;;;;;;;16.47;52.05;98454.97;5076019;28;41142;-82
2023/10/22 17:38:07;;;;;;;3.17;1.47;;;;;;;16.50;52.10;98472.56;5094211;28;42449;-86
2023/10/22 17:40:40;;;;;;;2.63;1.20;;;;;;;16.58;52.18;98499.44;5076150;28;40241;-82
2023/10/22 17:43:09;;;;;;;2.23;1.20;;;;;;;16.51;52.15;98501.84;5093203;28;42408;-84
2023/10/22 17:45:39;;;;;;;4.13;1.70;;;;;;;16.45;52.16;98488.19;5093025;28;43165;-83
2023/10/22 17:48:08;;;;;;;1.80;1.27;;;;;;;16.20;52.80;98454.00;5076056;28;42349;-85
2023/10/22 17:50:35;;;;;;;2.33;1.23;;;;;;;16.43;53.07;98499.03;5075936;28;38937;-81
2023/10/22 17:53:03;;;;;;;1.93;1.30;;;;;;;16.41;53.31;98505.50;5076171;28;41472;-81
2023/10/22 17:55:31;;;;;;;2.60;1.33;;;;;;;16.38;53.53;98509.28;5092881;28;43866;-83
2023/10/22 17:58:01;;;;;;;3.67;1.20;;;;;;;16.26;53.39;98493.53;5092763;28;43163;-82
2023/10/22 18:00:29;;;;;;;3.30;1.37;;;;;;;16.33;53.68;98524.03;5092630;28;41534;-81
2023/10/22 18:02:56;;;;;;;3.90;1.67;;;;;;;16.29;53.18;98510.16;5093771;28;41918;-82
2023/10/22 18:05:24;;;;;;;5.87;1.63;;;;;;;16.12;53.24;98498.31;5126747;27;43826;-84
2023/10/22 18:07:51;;;;;;;2.93;1.77;;;;;;;16.22;53.79;98516.16;5092679;28;42495;-83
2023/10/22 18:10:19;;;;;;;4.33;1.67;;;;;;;16.19;53.48;98521.81;5091930;28;40652;-82
2023/10/22 18:12:46;;;;;;;2.70;1.33;;;;;;;16.13;53.93;98525.88;5093404;28;41824;-82
2023/10/22 18:15:15;;;;;;;2.93;1.40;;;;;;;16.09;53.55;98529.78;5110366;28;43697;-85
2023/10/22 18:17:43;;;;;;;2.33;1.23;;;;;;;16.06;54.00;98533.63;5093610;28;42308;-85
2023/10/22 18:20:11;;;;;;;2.30;1.13;;;;;;;16.06;54.09;98546.13;5110302;28;38798;-82
2023/10/22 18:22:38;;;;;;;2.77;1.30;;;;;;;15.97;53.83;98537.09;5092176;28;41064;-82
2023/10/22 18:25:07;;;;;;;2.07;1.37;;;;;;;16.01;53.96;98543.84;5093194;28;42628;-81
2023/10/22 18:27:35;;;;;;;2.40;1.20;;;;;;;15.87;53.70;98530.88;5094304;28;42109;-88
2023/10/22 18:30:03;;;;;;;1.77;1.23;;;;;;;15.89;53.69;98544.09;5092962;28;41401;-83
2023/10/22 18:32:32;;;;;;;2.30;1.27;;;;;;;15.89;53.69;98544.94;5093401;28;42711;-84
2023/10/22 18:34:59;;;;;;;3.03;1.40;;;;;;;15.86;54.66;98555.91;5076039;28;43131;-81
2023/10/22 18:37:26;;;;;;;3.93;1.47;;;;;;;15.82;54.50;98554.50;5076261;28;40787;-83
2023/10/22 18:39:54;;;;;;;2.77;1.90;;;;;;;15.78;54.81;98553.06;5076860;28;38271;-82
2023/10/22 18:42:21;;;;;;;3.80;1.73;;;;;;;15.73;54.80;98555.28;5094649;28;41797;-82
2023/10/22 18:44:50;;;;;;;2.30;1.70;;;;;;;15.69;55.15;98554.75;5092842;28;43830;-85
2023/10/22 18:47:20;;;;;;;2.87;1.63;;;;;;;15.67;55.14;98561.19;5093301;28;41272;-83
2023/10/22 18:49:49;;;;;;;2.23;1.53;;;;;;;15.64;55.44;98561.44;5091076;28;40136;-84
2023/10/22 18:52:17;;;;;;;2.40;1.53;;;;;;;15.62;54.89;98560.72;5076011;28;41193;-87
2023/10/22 18:54:47;;;;;;;4.43;2.00;;;;;;;15.51;55.53;98547.44;5091070;28;41974;-84
2023/10/22 18:57:14;;;;;;;3.63;1.70;;;;;;;15.48;55.42;98545.03;5092138;28;42019;-84
2023/10/22 18:59:47;;;;;;;3.53;1.50;;;;;;;15.35;55.74;98538.09;5075158;28;38908;-85
2023/10/22 19:02:14;;;;;;;4.13;1.53;;;;;;;15.52;55.61;98568.66;5090277;28;41730;-84
2023/10/22 19:04:42;;;;;;;3.30;1.70;;;;;;;15.50;55.61;98572.44;5074608;28;43274;-85
2023/10/22 19:07:11;;;;;;;3.93;1.37;;;;;;;15.47;55.88;98576.22;5092133;28;43094;-83
2023/10/22 19:09:41;;;;;;;3.83;1.30;;;;;;;15.33;55.82;98558.75;5091790;28;40893;-85
2023/10/22 19:12:08;;;;;;;3.43;1.80;;;;;;;15.35;56.37;98567.47;5093055;28;41654;-82
2023/10/22 19:14:36;;;;;;;2.67;1.90;;;;;;;15.38;56.58;98577.03;5075511;28;43697;-86
2023/10/22 19:17:04;;;;;;;3.27;1.33;;;;;;;15.33;56.84;98576.59;5094428;28;42278;-84
2023/10/22 19:19:31;;;;;;;2.80;1.20;;;;;;;15.17;57.23;98561.06;5075570;28;39022;-85